• Join FlightAware (Why Join?)
  • Login
  • US Flag 
05:30PM EDT


 

Airport Tracker/Info


-or-


 

Live Flight TrackerFlight Track Log ✈ SWA149 ✈ 08-May-2013 ✈ KEWR - KMDW

Flight Track Log - Related Links

Times and Time Zones

All times are in EDT time to prevent confusion due to time zone crossing. See the SWA149 flight status page for this flight to view local times or setup timezone preferences in your user account.

Time Position Orientation Groundspeed Altitude Reporting Facility
EDT Latitude Longitude Course Direction KTS MPH feet Rate Location/Type
12:49PM 40.7167 -74.1333 21° North 189 217 2,700  Level New York TRACON
12:50PM 40.7833 -74.1000 21° North 276 318 3,100 1,680 Climbing New York TRACON
12:51PM 40.8167 -74.2000 294° West 302 348 6,300 2,400 Climbing New York TRACON
12:52PM 40.8500 -74.3000 294° West 311 358 8,000 2,040 Climbing New York TRACON
12:53PM 40.8833 -74.4000 294° West 318 366 10,400 2,580 Climbing New York TRACON
12:53PM 40.9103 -74.4558 303° West 331 381 12,000 2,280 Climbing New York Center
12:54PM 40.9764 -74.5444 315° West 353 406 14,000 960 Climbing New York Center
12:55PM 40.9811 -74.6547 273° West 307 353 14,000  Level New York Center
12:56PM 40.9606 -74.7664 256° West 307 353 14,000  Level New York Center
12:57PM 40.9400 -74.8831 257° West 319 367 14,000 480 Level New York Center
12:58PM 40.9194 -74.9944 256° West 319 367 15,000 1,200 Climbing New York Center
12:59PM 40.8942 -75.1164 255° West 326 375 16,500 1,740 Climbing New York Center
01:00PM 40.8736 -75.2222 256° West 356 410 18,600 2,640 Climbing New York Center
01:01PM 40.8406 -75.3764 254° West 381 438 21,900 3,000 Climbing New York Center
01:02PM 40.8119 -75.5197 255° West 395 455 24,600 2,520 Climbing New York Center
01:03PM 40.7800 -75.6875 256° West 418 481 26,900 2,040 Climbing New York Center
01:04PM 40.7464 -75.8439 254° West 433 498 28,800 1,740 Climbing New York Center
01:05PM 40.7144 -76.0058 255° West 454 522 30,400 1,740 Climbing New York Center
01:06PM 40.6797 -76.1728 255° West 465 535 32,300 1,740 Climbing New York Center
01:07PM 40.6367 -76.3364 251° West 470 541 34,000 1,800 Climbing New York Center
01:08PM 40.5856 -76.4936 247° West 470 541 36,000 1,980 Climbing New York Center
01:09PM 40.5547 -76.6547 256° West 475 547 38,000 960 Climbing New York Center
01:10PM 40.5717 -76.8147 278° West 446 513 38,000  Level New York Center
01:11PM 40.5967 -76.9756 282° West 446 513 38,000  Level New York Center
01:12PM 40.6194 -77.1336 281° West 446 513 38,000  Level New York Center
01:13PM 40.6397 -77.2969 279° West 451 519 38,000  Level New York Center
01:14PM 40.6611 -77.4383 281° West 451 519 38,000  Level New York Center
01:16PM 40.7106 -77.7917 281° West 444 511 38,000  Level Cleveland Center
01:17PM 40.7333 -77.9553 280° West 449 517 38,000  Level Cleveland Center
01:18PM 40.7556 -78.1189 280° West 449 517 38,000  Level Cleveland Center
01:19PM 40.7756 -78.2800 279° West 449 517 38,000  Level Cleveland Center
01:20PM 40.7956 -78.4439 279° West 449 517 38,000  Level Cleveland Center
01:21PM 40.8172 -78.6078 280° West 454 522 38,000  Level Cleveland Center
01:22PM 40.8389 -78.7744 280° West 459 528 38,000  Level Cleveland Center
01:23PM 40.8619 -78.9358 281° West 459 528 38,000  Level Cleveland Center
01:24PM 40.8831 -79.0975 280° West 459 528 38,000  Level Cleveland Center
01:25PM 40.9039 -79.2617 280° West 459 528 38,000  Level Cleveland Center
01:26PM 40.9222 -79.4289 278° West 459 528 38,000  Level Cleveland Center
01:27PM 40.9425 -79.5908 279° West 464 534 38,000  Level Cleveland Center
01:28PM 40.9625 -79.7528 279° West 464 534 38,000  Level Cleveland Center
01:29PM 40.9825 -79.9175 279° West 464 534 38,000  Level Cleveland Center
01:30PM 41.0000 -80.0797 278° West 459 528 38,000  Level Cleveland Center
01:31PM 41.0194 -80.2419 279° West 459 528 38,000  Level Cleveland Center
01:32PM 41.0386 -80.4097 279° West 464 534 38,000  Level Cleveland Center
01:33PM 41.0553 -80.5694 278° West 464 534 38,000  Level Cleveland Center
01:34PM 41.0739 -80.7319 279° West 464 534 38,000  Level Cleveland Center
01:35PM 41.0903 -80.8944 278° West 459 528 38,000  Level Cleveland Center
01:36PM 41.1086 -81.0544 279° West 452 520 38,000  Level Cleveland Center
01:37PM 41.1222 -81.2169 276° West 452 520 38,000  Level Cleveland Center
01:38PM 41.1381 -81.3772 278° West 445 512 38,000  Level Cleveland Center
01:39PM 41.1597 -81.5347 280° West 445 512 38,000  Level Cleveland Center
01:40PM 41.1769 -81.6947 278° West 445 512 38,000  Level Cleveland Center
01:41PM 41.1900 -81.8578 276° West 445 512 38,000  Level Cleveland Center
01:42PM 41.2089 -82.0183 279° West 445 512 38,000  Level Cleveland Center
01:43PM 41.2192 -82.1842 275° West 451 519 38,000  Level Cleveland Center
01:44PM 41.2356 -82.3475 278° West 451 519 38,000  Level Cleveland Center
01:45PM 41.2494 -82.5108 277° West 446 513 38,000  Level Cleveland Center
01:46PM 41.2656 -82.6689 278° West 440 506 38,000  Level Cleveland Center
01:47PM 41.2811 -82.8322 277° West 440 506 38,000  Level Cleveland Center
01:48PM 41.2947 -82.9903 277° West 445 512 38,000  Level Cleveland Center
01:49PM 41.3061 -83.1344 276° West 445 512 38,000  Level Cleveland Center
01:50PM 41.3192 -83.2900 276° West 439 505 38,000  Level Cleveland Center
01:51PM 41.3319 -83.4508 276° West 439 505 38,000  Level Cleveland Center
01:52PM 41.3444 -83.6092 276° West 439 505 38,000  Level Cleveland Center
01:53PM 41.3589 -83.7703 277° West 439 505 38,000  Level Cleveland Center
01:54PM 41.3711 -83.9286 276° West 439 505 38,000  Level Cleveland Center
01:55PM 41.3831 -84.0842 276° West 439 505 38,000 -1,140 Level Cleveland Center
01:56PM 41.4028 -84.2569 279° West 433 498 35,800 -2,580 Descending Cleveland Center
01:58PM 41.4211 -84.5086 276° West 426 490 31,100 -2,100 Descending Chicago Center
01:59PM 41.4333 -84.6656 276° West 427 491 30,000 -540 Descending Chicago Center
02:00PM 41.4439 -84.8244 275° West 429 494 30,000  Level Chicago Center
02:01PM 41.4558 -84.9825 276° West 429 494 30,000 -780 Level Chicago Center
02:02PM 41.4689 -85.1711 275° West 425 489 28,500 -1,920 Descending Chicago Center
02:03PM 41.4783 -85.3222 275° West 408 470 26,100 -1,980 Descending Chicago Center
02:04PM 41.4883 -85.4717 275° West 398 458 24,500 -1,380 Descending Chicago Center
02:05PM 41.4983 -85.6150 275° West 382 440 23,300 -1,200 Descending Chicago Center
02:06PM 41.5075 -85.7633 275° West 395 455 22,100 -1,800 Descending Chicago Center
02:07PM 41.5169 -85.9106 275° West 396 456 19,600 -2,400 Descending Chicago Center
02:08PM 41.5247 -86.0514 274° West 384 442 17,200 -2,460 Descending Chicago Center
02:09PM 41.5236 -86.1878 269° West 371 427 14,600 -2,520 Descending Chicago Center
02:10PM 41.5225 -86.3222 269° West 363 418 12,100 -2,040 Descending Chicago Center
02:11PM 41.5219 -86.4778 270° West 351 404 10,400 -1,020 Descending Chicago Center
02:12PM 41.5214 -86.6039 270° West 343 395 10,000 -240 Descending Chicago Center
02:13PM 41.5206 -86.7358 270° West 340 391 10,000  Level Chicago Center
02:14PM 41.5189 -86.8511 269° West 313 360 10,000 -540 Level Chicago Center
02:16PM 41.5181 -86.9531 269° West 280 322 8,900 -1,260 Descending Chicago Center
02:17PM 41.5161 -87.0536 269° West 276 318 7,400 -1,440 Descending Chicago Center
02:18PM 41.5156 -87.1733 270° West 272 313 6,000 -900 Descending Chicago Center
02:18PM 41.5167 -87.2167 272° West 266 306 6,000 -720 Level Chicago TRACON
02:19PM 41.5167 -87.3333 270° West 269 310 4,900 -1,020 Descending Chicago TRACON
02:20PM 41.5167 -87.4167 270° West 267 307 4,000 -660 Descending Chicago TRACON
02:21PM 41.5125 -87.4672 264° West 267 307 4,000  Level Chicago Center
02:22PM 41.5267 -87.5592 282° West 263 303 4,000 -300 Level Chicago Center
02:23PM 41.5769 -87.6500 307° West 258 297 3,400 -780 Descending Chicago Center
02:24PM 41.6269 -87.7194 314° West 261 300 2,500 -720 Descending Chicago Center
02:24PM 41.6500 -87.7500 315° West 236 272 2,500  Level Chicago TRACON
02:25PM 41.6833 -87.8000 312° West 215 247 2,500 -240 Level Chicago TRACON
02:26PM 41.7333 -87.8167 346° North 179 206 2,100 -600 Descending Chicago TRACON
02:27PM 41.7500 -87.7833 56° Northeast 127 146 1,300 -840 Descending Chicago TRACON
02:30PM 41.7833 -87.7500 334° Northwest  Level FlightAware Approximate